New Lyme, Ohio
Current Conditions -  °F | °C
As of 6:53 AM on Thursday 29 Jan 2015 (Local Time) from KHZY Reporting Station
Overcast Overcast  
Wind Chill: 17°   Ceiling: 6000
Heat Index: 27°   Visibility: 10mi
Dew Point:   Wind: 10mph
Humidity: 41%   Direction: 150°SSE
Pressure: 30"   Gusts: NA
Location:  41.6051°N, 80.867°W
Report Text: KHZY 291153Z AUTO 15009KT 10SM OVC060 M03/M14 A3000 RMK AO2 PK WND 15026/1110 SLP171 T10281144 11028 21056 56040
Loading
Personal Weather Stations






























Interactive Weather Map New forecast layout! Learn more

10-Day Weather Forecast

Advertisements
Track Severe Weather on mobile